Time;durP1;ratioP1;P1;durP2;ratioP2;P2;SDS_P1;SDS_P2;PMS_P1;PMS_P2;Temp;Humidity;BMP_temperature;BMP_pressure;BME280_temperature;BME280_humidity;BME280_pressure;Samples;Min_cycle;Max_cycle;Signal;HPM_P1;HPM_P2
2022/03/03 00:01:19;;;;;;;;;79.75;65.00;;;;;10.54;54.87;100970.06;5060980;28;45416;-60
2022/03/03 00:03:44;;;;;;;;;79.75;62.50;;;;;10.55;54.59;100965.66;5061127;28;45682;-58
2022/03/03 00:06:09;;;;;;;;;72.25;56.25;;;;;10.56;54.94;100967.41;5060797;28;45589;-59
2022/03/03 00:08:35;;;;;;;;;78.75;63.00;;;;;10.56;54.44;100972.66;5060955;28;45441;-60
2022/03/03 00:11:00;;;;;;;;;78.00;61.50;;;;;10.55;54.70;100957.75;5060984;28;45428;-58
2022/03/03 00:13:26;;;;;;;;;80.50;66.00;;;;;10.53;54.46;100960.44;5061010;28;45555;-60
2022/03/03 00:15:51;;;;;;;;;84.00;66.75;;;;;10.54;54.40;100956.06;5060778;28;46243;-60
2022/03/03 00:18:17;;;;;;;;;79.75;66.75;;;;;10.54;54.45;100961.31;5060834;28;45397;-59
2022/03/03 00:20:42;;;;;;;;;79.75;63.25;;;;;10.52;55.24;100950.81;5061049;28;45501;-60
2022/03/03 00:23:07;;;;;;;;;81.50;65.75;;;;;10.50;54.86;100957.03;5060828;28;45624;-60
2022/03/03 00:25:33;;;;;;;;;78.00;61.50;;;;;10.45;55.38;100948.41;5060694;28;46176;-61
2022/03/03 00:28:02;;;;;;;;;83.50;65.00;;;;;10.45;55.11;100957.19;5060743;28;45446;-58
2022/03/03 00:30:28;;;;;;;;;78.75;60.75;;;;;10.44;54.98;100959.84;5057447;28;45472;-59
2022/03/03 00:32:53;;;;;;;;;76.00;61.75;;;;;10.43;55.32;100960.75;5057537;28;45579;-59
2022/03/03 00:35:18;;;;;;;;;77.50;62.00;;;;;10.42;54.91;100965.13;5057261;28;45511;-59
2022/03/03 00:37:44;;;;;;;;;77.50;61.50;;;;;10.43;55.04;100959.00;5057352;28;45458;-60
2022/03/03 00:40:10;;;;;;;;;77.00;61.50;;;;;10.42;55.25;100964.28;5057347;28;45474;-59
2022/03/03 00:42:36;;;;;;;;;79.00;63.75;;;;;10.41;55.57;100965.19;5057216;28;45383;-60
2022/03/03 00:45:03;;;;;;;;;81.50;66.75;;;;;10.39;55.22;100962.59;5057117;28;45497;-60
2022/03/03 00:47:28;;;;;;;;;78.50;61.50;;;;;10.37;55.61;100964.44;5055837;28;46161;-60
2022/03/03 00:49:53;;;;;;;;;80.25;65.25;;;;;10.38;55.54;100966.16;5057100;28;45431;-58
2022/03/03 00:52:19;;;;;;;;;74.00;60.00;;;;;10.29;55.32;100953.25;5057308;28;45404;-59
2022/03/03 00:54:44;;;;;;;;;84.00;64.00;;;;;10.37;55.55;100972.31;5056847;28;50157;-58
2022/03/03 00:57:09;;;;;;;;;77.25;61.00;;;;;10.35;55.81;100972.34;5056678;28;50251;-59
2022/03/03 00:59:34;;;;;;;;;80.00;62.25;;;;;10.32;55.46;100969.81;5057035;28;45406;-59
2022/03/03 01:02:00;;;;;;;;;81.00;64.75;;;;;10.31;55.53;100968.06;5057136;28;45353;-60
2022/03/03 01:04:25;;;;;;;;;78.75;63.75;;;;;10.28;56.07;100970.78;5056757;28;46209;-58
2022/03/03 01:06:51;;;;;;;;;83.00;66.75;;;;;10.27;55.58;100970.81;5056620;28;45486;-59
2022/03/03 01:09:16;;;;;;;;;81.00;64.00;;;;;10.26;55.69;100964.72;5056969;28;45350;-58
2022/03/03 01:11:41;;;;;;;;;80.50;63.00;;;;;10.31;55.65;100970.69;5056656;28;45525;-59
2022/03/03 01:14:07;;;;;;;;;81.25;64.75;;;;;10.32;56.11;100966.34;5056639;28;45466;-58
2022/03/03 01:16:33;;;;;;;;;78.00;61.00;;;;;10.28;55.68;100973.41;5056779;28;45453;-59
2022/03/03 01:18:59;;;;;;;;;81.00;62.75;;;;;10.28;55.45;100959.41;5056840;28;45458;-60
2022/03/03 01:21:24;;;;;;;;;85.00;67.25;;;;;10.30;55.29;100965.50;5056996;28;45521;-59
2022/03/03 01:23:50;;;;;;;;;83.00;66.25;;;;;10.31;55.42;100965.44;5055214;28;47704;-60
2022/03/03 01:26:15;;;;;;;;;81.25;63.25;;;;;10.27;55.50;100962.94;5056754;28;45489;-59
2022/03/03 01:28:40;;;;;;;;;77.50;62.00;;;;;10.29;55.57;100958.50;5056804;28;45948;-59
2022/03/03 01:31:06;;;;;;;;;80.25;64.25;;;;;10.31;55.75;100948.81;5056786;28;45594;-59
2022/03/03 01:33:31;;;;;;;;;78.25;61.50;;;;;10.38;55.30;100958.25;5056327;28;45585;-58
2022/03/03 01:35:56;;;;;;;;;82.25;64.50;;;;;10.37;54.83;100948.66;5056539;28;45374;-59
2022/03/03 01:38:22;;;;;;;;;81.25;63.50;;;;;10.37;55.35;100954.78;5055722;28;45483;-59
2022/03/03 01:40:47;;;;;;;;;84.50;68.75;;;;;10.35;55.62;100942.56;5055650;28;45390;-59
2022/03/03 01:43:13;;;;;;;;;78.00;61.25;;;;;10.30;54.90;100944.47;5056000;28;46485;-59
2022/03/03 01:45:38;;;;;;;;;76.75;62.00;;;;;10.28;55.62;100936.63;5056567;28;45386;-60
2022/03/03 01:48:04;;;;;;;;;76.00;61.25;;;;;10.30;55.49;100945.34;5056671;28;45445;-59
2022/03/03 01:50:29;;;;;;;;;79.25;63.25;;;;;10.27;55.60;100942.78;5056643;28;45567;-59
2022/03/03 01:52:55;;;;;;;;;79.75;63.50;;;;;10.30;55.41;100942.69;5056248;28;45380;-58
2022/03/03 01:55:21;;;;;;;;;78.00;62.00;;;;;10.35;55.03;100942.56;5056256;28;45486;-58
2022/03/03 01:57:49;;;;;;;;;77.25;61.00;;;;;10.32;55.04;100935.63;5056590;28;45447;-59
2022/03/03 02:00:15;;;;;;;;;76.00;61.50;;;;;10.31;55.05;100928.63;5056344;28;45455;-59
2022/03/03 02:02:40;;;;;;;;;77.25;62.00;;;;;10.33;55.22;100931.25;5056063;28;46468;-59
2022/03/03 02:05:07;;;;;;;;;80.75;61.50;;;;;10.31;55.28;100933.91;5056426;28;45364;-59
2022/03/03 02:07:33;;;;;;;;;80.00;63.50;;;;;10.30;55.46;100934.81;5054972;28;45456;-59
2022/03/03 02:10:01;;;;;;;;;79.25;61.00;;;;;10.32;55.48;100932.16;5055995;28;45414;-60
2022/03/03 02:12:26;;;;;;;;;79.00;63.25;;;;;10.33;55.28;100932.09;5054821;28;48304;-59
2022/03/03 02:14:51;;;;;;;;;80.25;62.50;;;;;10.30;55.82;100937.44;5056145;28;45441;-59
2022/03/03 02:17:17;;;;;;;;;79.75;62.25;;;;;10.33;55.47;100931.25;5056109;28;45447;-57
2022/03/03 02:19:42;;;;;;;;;80.25;62.25;;;;;10.33;55.59;100925.97;5056083;28;45450;-63
2022/03/03 02:22:09;;;;;;;;;80.50;61.75;;;;;10.38;56.21;100932.81;5055822;28;45418;-58
2022/03/03 02:24:38;;;;;;;;;73.25;59.75;;;;;10.40;55.73;100935.41;5056050;28;45411;-59
2022/03/03 02:27:05;;;;;;;;;73.25;59.00;;;;;10.40;55.85;100935.41;5055921;28;45401;-58
2022/03/03 02:29:31;;;;;;;;;77.25;62.00;;;;;10.43;55.86;100926.59;5055910;28;45474;-59
2022/03/03 02:31:57;;;;;;;;;73.50;59.25;;;;;10.43;56.37;100932.69;5055634;28;46365;-58
2022/03/03 02:34:23;;;;;;;;;74.25;59.50;;;;;10.45;56.35;100924.75;5055727;28;45553;-59
2022/03/03 02:36:49;;;;;;;;;70.25;57.50;;;;;10.50;56.27;100930.72;5055556;28;45450;-59
2022/03/03 02:39:14;;;;;;;;;74.75;60.50;;;;;10.46;56.59;100918.59;5055570;28;45594;-60
2022/03/03 02:41:39;;;;;;;;;72.25;57.00;;;;;10.48;56.74;100917.66;5055482;28;46034;-58
2022/03/03 02:44:05;;;;;;;;;70.50;57.75;;;;;10.51;56.22;100920.19;5055250;28;49005;-59
2022/03/03 02:46:31;;;;;;;;;75.50;58.50;;;;;10.45;57.39;100912.47;5055601;28;45380;-59
2022/03/03 02:48:57;;;;;;;;;69.25;56.00;;;;;10.46;56.87;100914.19;5055802;28;45375;-57
2022/03/03 02:51:22;;;;;;;;;72.75;57.00;;;;;10.46;57.36;100914.19;5055439;28;45484;-59
2022/03/03 02:53:48;;;;;;;;;71.75;56.00;;;;;10.49;57.50;100910.63;5053504;28;45470;-59
2022/03/03 02:56:14;;;;;;;;;68.75;56.75;;;;;10.50;57.38;100905.28;5055450;28;45366;-59
2022/03/03 02:58:39;;;;;;;;;71.00;56.75;;;;;10.51;57.49;100904.41;5055389;28;45415;-58
2022/03/03 03:01:06;;;;;;;;;65.50;54.00;;;;;10.53;57.86;100896.44;5055320;28;45376;-58
2022/03/03 03:03:32;;;;;;;;;71.50;57.25;;;;;10.53;57.98;100896.44;5055343;28;45437;-59
2022/03/03 03:05:57;;;;;;;;;72.25;57.00;;;;;10.52;57.86;100892.09;5055423;28;45437;-57
2022/03/03 03:08:23;;;;;;;;;67.00;53.75;;;;;10.51;57.86;100898.28;5055397;28;45422;-59
2022/03/03 03:10:48;;;;;;;;;65.50;53.75;;;;;10.51;58.39;100893.03;5054942;28;45537;-57
2022/03/03 03:13:16;;;;;;;;;67.75;54.25;;;;;10.51;58.50;100893.03;5055270;28;45347;-59
2022/03/03 03:15:43;;;;;;;;;63.25;52.50;;;;;10.52;58.55;100892.09;5055490;28;45386;-59
2022/03/03 03:18:21;;;;;;;;;65.75;53.75;;;;;10.51;59.17;100875.47;5055170;28;45353;-59
2022/03/03 03:20:48;;;;;;;;;64.25;52.75;;;;;10.50;59.26;100879.00;5054778;28;45954;-58
2022/03/03 03:23:16;;;;;;;;;60.75;49.75;;;;;10.50;60.27;100886.88;5055132;27;45448;-58
2022/03/03 03:25:43;;;;;;;;;62.75;50.75;;;;;10.47;60.11;100872.97;5053824;28;45394;-62
2022/03/03 03:28:10;;;;;;;;;61.50;51.00;;;;;10.48;60.04;100872.09;5055120;28;45370;-59
2022/03/03 03:30:35;;;;;;;;;62.75;50.50;;;;;10.51;60.47;100872.00;5055008;28;46170;-59
2022/03/03 03:33:01;;;;;;;;;56.75;47.75;;;;;10.47;60.58;100867.72;5054901;28;45601;-59
2022/03/03 03:35:27;;;;;;;;;61.50;49.25;;;;;10.52;60.30;100873.69;5054894;28;45485;-58
2022/03/03 03:37:52;;;;;;;;;64.50;53.00;;;;;10.52;60.60;100869.28;5055119;28;45505;-58
2022/03/03 03:40:18;;;;;;;;;61.75;49.75;;;;;10.51;60.35;100874.63;5054844;28;45454;-59
2022/03/03 03:42:44;;;;;;;;;66.00;53.00;;;;;10.52;60.38;100865.81;5054916;28;45480;-60
2022/03/03 03:45:10;;;;;;;;;59.25;50.50;;;;;10.56;60.20;100862.19;5054972;28;45496;-60
2022/03/03 03:47:36;;;;;;;;;60.50;50.75;;;;;10.50;61.33;100865.84;5055108;28;45595;-59
2022/03/03 03:50:04;;;;;;;;;58.75;49.75;;;;;10.50;61.26;100857.09;5054592;28;45956;-59
2022/03/03 03:52:30;;;;;;;;;58.50;49.00;;;;;10.48;61.28;100853.69;5054888;28;45329;-57
2022/03/03 03:54:55;;;;;;;;;62.50;51.50;;;;;10.48;62.32;100851.91;5054654;28;45438;-59
2022/03/03 03:57:20;;;;;;;;;61.00;50.25;;;;;10.49;61.26;100861.50;5054323;28;51370;-57
2022/03/03 03:59:46;;;;;;;;;59.25;49.25;;;;;10.52;61.60;100852.66;5054526;28;45926;-57
2022/03/03 04:02:11;;;;;;;;;57.75;49.00;;;;;10.54;62.08;100850.84;5054774;28;45425;-59
2022/03/03 04:04:37;;;;;;;;;58.50;48.00;;;;;10.57;61.56;100848.97;5055235;28;45458;-59
2022/03/03 04:07:02;;;;;;;;;62.75;48.75;;;;;10.58;62.20;100849.84;5058160;28;45371;-59
2022/03/03 04:09:28;;;;;;;;;59.25;47.00;;;;;10.57;62.22;100846.34;5058139;28;45458;-59
2022/03/03 04:11:53;;;;;;;;;63.00;49.75;;;;;10.59;61.77;100843.69;5057917;28;45439;-60
2022/03/03 04:14:18;;;;;;;;;65.50;52.00;;;;;10.59;62.43;100839.28;5058209;28;45494;-58
2022/03/03 04:16:44;;;;;;;;;62.25;50.75;;;;;10.58;62.54;100841.94;5056579;28;45333;-58
2022/03/03 04:19:09;;;;;;;;;56.00;47.25;;;;;10.56;62.51;100839.38;5057810;28;45536;-57
2022/03/03 04:21:34;;;;;;;;;58.00;48.25;;;;;10.56;62.46;100844.63;5057785;28;45508;-57
2022/03/03 04:24:00;;;;;;;;;61.00;49.50;;;;;10.58;62.14;100834.06;5057849;28;45514;-58
2022/03/03 04:26:25;;;;;;;;;58.50;49.00;;;;;10.60;62.79;100826.97;5058068;28;45557;-58
2022/03/03 04:28:51;;;;;;;;;59.75;48.00;;;;;10.58;62.79;100819.13;5057726;28;45433;-59
2022/03/03 04:31:16;;;;;;;;;55.25;47.25;;;;;10.57;62.03;100814.78;5057585;28;45411;-59
2022/03/03 04:33:42;;;;;;;;;57.75;47.50;;;;;10.56;62.24;100815.72;5057914;28;45367;-59
2022/03/03 04:36:08;;;;;;;;;57.75;47.75;;;;;10.59;62.77;100812.97;5057828;28;45545;-59
2022/03/03 04:38:33;;;;;;;;;56.00;45.75;;;;;10.58;64.08;100813.88;5057759;28;46094;-57
2022/03/03 04:40:59;;;;;;;;;54.00;45.00;;;;;10.53;63.77;100805.28;5057520;28;45738;-59
2022/03/03 04:43:24;;;;;;;;;57.75;46.50;;;;;10.52;63.45;100811.44;5057590;28;45486;-59
2022/03/03 04:45:50;;;;;;;;;58.00;48.50;;;;;10.51;63.87;100806.25;5057757;28;45381;-58
2022/03/03 04:48:15;;;;;;;;;56.00;46.25;;;;;10.52;63.26;100802.69;5057272;28;45486;-60
2022/03/03 04:50:41;;;;;;;;;55.50;47.00;;;;;10.51;65.20;100803.63;5057403;28;45533;-59
2022/03/03 04:53:06;;;;;;;;;53.00;45.00;;;;;10.45;65.64;100802.06;5057574;28;45407;-58
2022/03/03 04:55:32;;;;;;;;;62.25;48.75;;;;;10.46;64.37;100803.75;5056067;28;45419;-57
2022/03/03 04:57:57;;;;;;;;;55.75;47.75;;;;;10.47;64.63;100804.59;5057021;28;45968;-57
2022/03/03 05:00:22;;;;;;;;;59.25;47.50;;;;;10.50;64.11;100792.22;5056994;28;45424;-58
2022/03/03 05:02:47;;;;;;;;;59.00;46.50;;;;;10.44;65.96;100795.03;5057230;28;45426;-62
2022/03/03 05:05:13;;;;;;;;;56.75;47.00;;;;;10.38;65.56;100793.47;5057180;28;45581;-58
2022/03/03 05:07:38;;;;;;;;;62.25;49.00;;;;;10.40;65.09;100790.81;5056727;28;45456;-59
2022/03/03 05:10:05;;;;;;;;;59.75;49.50;;;;;10.43;65.05;100797.75;5056674;28;45621;-58
2022/03/03 05:12:30;;;;;;;;;57.00;46.25;;;;;10.44;65.13;100791.56;5057030;28;45460;-60
2022/03/03 05:14:56;;;;;;;;;56.75;47.50;;;;;10.47;64.97;100799.34;5057069;28;45420;-59
2022/03/03 05:17:22;;;;;;;;;55.50;47.00;;;;;10.47;64.85;100794.09;5056381;28;45369;-58
2022/03/03 05:19:47;;;;;;;;;58.50;48.00;;;;;10.46;65.40;100795.88;5056642;28;45428;-58
2022/03/03 05:22:12;;;;;;;;;54.75;45.75;;;;;10.47;64.93;100792.31;5057009;28;45382;-59
2022/03/03 05:24:42;;;;;;;;;56.25;46.50;;;;;10.45;65.86;100790.66;5056864;28;45735;-60
2022/03/03 05:27:08;;;;;;;;;60.75;50.50;;;;;10.44;65.55;100789.78;5056801;28;45600;-60
2022/03/03 05:29:34;;;;;;;;;58.50;47.00;;;;;10.46;65.31;100787.13;5056721;28;45513;-58
2022/03/03 05:32:00;;;;;;;;;57.00;47.25;;;;;10.43;65.48;100790.72;5056659;28;45418;-60
2022/03/03 05:34:26;;;;;;;;;56.50;46.00;;;;;10.44;65.07;100792.41;5056734;28;45550;-60
2022/03/03 05:36:52;;;;;;;;;60.25;50.75;;;;;10.46;64.88;100789.75;5056436;28;45369;-58
2022/03/03 05:39:18;;;;;;;;;62.25;49.00;;;;;10.47;65.18;100794.09;5056429;28;45422;-59
2022/03/03 05:41:45;;;;;;;;;60.50;48.25;;;;;10.48;65.42;100793.19;5056859;28;45453;-59
2022/03/03 05:44:13;;;;;;;;;57.75;49.25;;;;;10.46;64.97;100795.00;5056304;28;45484;-59
2022/03/03 05:46:44;;;;;;;;;66.25;51.00;;;;;10.43;66.42;100800.38;5056261;28;45668;-58
2022/03/03 05:49:10;;;;;;;;;59.50;48.25;;;;;10.39;66.62;100796.97;5056258;28;45356;-59
2022/03/03 05:51:36;;;;;;;;;62.50;51.75;;;;;10.35;66.96;100800.59;5056269;28;45435;-58
2022/03/03 05:54:03;;;;;;;;;59.50;49.00;;;;;10.31;67.16;100802.44;5056130;28;45547;-58
2022/03/03 05:56:32;;;;;;;;;54.00;46.00;;;;;10.32;67.29;100806.81;5055984;28;45450;-59
2022/03/03 05:59:01;;;;;;;;;56.00;47.75;;;;;10.33;67.88;100802.41;5054773;28;45429;-59
2022/03/03 06:01:28;;;;;;;;;57.50;46.50;;;;;10.35;67.21;100803.25;5056000;28;45502;-59
2022/03/03 06:03:59;;;;;;;;;56.50;46.75;;;;;10.40;66.65;100796.06;5055937;28;45597;-59
2022/03/03 06:06:28;;;;;;;;;57.00;47.00;;;;;10.44;66.65;100796.81;5055912;28;45398;-59
2022/03/03 06:09:14;;;;;;;;;51.75;45.00;;;;;10.43;66.97;100795.13;5055601;28;45420;-59
2022/03/03 06:11:49;;;;;;;;;59.75;48.75;;;;;10.46;66.73;100787.97;5054434;28;45429;-60
2022/03/03 06:14:30;;;;;;;;;54.25;44.75;;;;;10.47;67.36;100791.47;5055890;28;45568;-59
2022/03/03 06:16:57;;;;;;;;;54.00;44.00;;;;;10.47;67.54;100791.47;5055772;28;45624;-59
2022/03/03 06:19:23;;;;;;;;;53.50;45.50;;;;;10.47;67.34;100796.72;5055420;28;45548;-57
2022/03/03 06:21:49;;;;;;;;;54.00;45.50;;;;;10.46;66.77;100795.88;5055986;28;45602;-59
2022/03/03 06:24:14;;;;;;;;;53.50;45.00;;;;;10.43;67.12;100808.25;5055614;28;45476;-62
2022/03/03 06:26:40;;;;;;;;;58.50;47.25;;;;;10.40;67.42;100798.69;5055473;28;45567;-59
2022/03/03 06:29:05;;;;;;;;;51.00;42.25;;;;;10.42;67.86;100814.41;5054946;28;45539;-59
2022/03/03 06:31:30;;;;;;;;;57.00;47.75;;;;;10.39;68.07;100808.34;5055578;28;45441;-60
2022/03/03 06:33:56;;;;;;;;;61.00;49.50;;;;;10.35;68.25;100806.72;5054354;28;45464;-60
2022/03/03 06:36:21;;;;;;;;;57.75;46.50;;;;;10.36;68.10;100804.94;5055467;28;46184;-58
2022/03/03 06:38:47;;;;;;;;;60.75;48.75;;;;;10.36;67.50;100805.81;5055711;28;45366;-58
2022/03/03 06:41:12;;;;;;;;;59.75;49.75;;;;;10.38;67.67;100808.41;5055669;28;45441;-58
2022/03/03 06:43:38;;;;;;;;;57.00;47.50;;;;;10.39;67.67;100816.22;5055811;28;45320;-58
2022/03/03 06:46:04;;;;;;;;;61.00;48.75;;;;;10.39;67.76;100818.84;5055763;28;46023;-59
2022/03/03 06:48:30;;;;;;;;;59.25;48.00;;;;;10.41;67.88;100813.56;5055708;28;45387;-57
2022/03/03 06:50:56;;;;;;;;;55.50;45.50;;;;;10.42;68.04;100817.03;5055898;28;45407;-60
2022/03/03 06:53:29;;;;;;;;;59.50;45.00;;;;;10.41;68.26;100812.69;5055418;28;45562;-58
2022/03/03 06:56:03;;;;;;;;;57.75;46.75;;;;;10.42;68.33;100815.25;5055412;28;46344;-60
2022/03/03 06:58:30;;;;;;;;;55.25;43.50;;;;;10.43;68.07;100816.16;5055489;28;45383;-60
2022/03/03 07:00:57;;;;;;;;;52.75;43.50;;;;;10.44;67.95;100821.34;5054029;28;45341;-61
2022/03/03 07:03:24;;;;;;;;;57.50;46.00;;;;;10.44;68.55;100826.59;5055315;28;45636;-60
2022/03/03 07:05:51;;;;;;;;;53.75;46.00;;;;;10.46;68.53;100821.31;5053841;28;47102;-59
2022/03/03 07:08:18;;;;;;;;;55.25;46.00;;;;;10.46;68.64;100822.16;5054046;28;45442;-59
2022/03/03 07:10:46;;;;;;;;;55.75;46.00;;;;;10.40;70.09;100817.09;5055134;28;45529;-59
2022/03/03 07:13:14;;;;;;;;;55.00;46.75;;;;;10.36;69.84;100821.56;5055302;28;45493;-61
2022/03/03 07:15:49;;;;;;;;;56.25;45.50;;;;;10.40;69.21;100819.72;5055134;28;46406;-59
2022/03/03 07:18:18;;;;;;;;;57.00;47.00;;;;;10.41;69.35;100818.81;5054890;28;45494;-59
2022/03/03 07:21:10;;;;;;;;;55.25;45.50;;;;;10.47;68.57;100821.25;5054991;28;45441;-61
2022/03/03 07:23:38;;;;;;;;;53.00;44.25;;;;;10.47;68.50;100820.38;5054836;28;45442;-60
2022/03/03 07:26:08;;;;;;;;;57.50;48.25;;;;;10.45;69.25;100820.44;5055008;28;45371;-61
2022/03/03 07:28:34;;;;;;;;;53.50;44.75;;;;;10.46;68.90;100808.16;5054831;28;45465;-59
2022/03/03 07:31:02;;;;;;;;;59.50;46.75;;;;;10.43;69.23;100814.38;5054902;28;45428;-60
2022/03/03 07:33:47;;;;;;;;;57.75;49.00;;;;;10.43;69.37;100817.00;5055053;28;45447;-59
2022/03/03 07:36:37;;;;;;;;;56.75;44.00;;;;;10.46;69.71;100824.78;5054416;28;45366;-60
2022/03/03 07:39:11;;;;;;;;;58.50;47.25;;;;;10.49;69.33;100813.31;5055589;28;45438;-60
2022/03/03 07:41:36;;;;;;;;;59.00;47.50;;;;;10.55;69.35;100818.38;5057362;28;45541;-60
2022/03/03 07:44:02;;;;;;;;;63.75;50.25;;;;;10.56;69.50;100815.72;5058152;28;45444;-59
2022/03/03 07:46:28;;;;;;;;;58.00;48.75;;;;;10.58;68.39;100815.66;5058283;28;46360;-61
2022/03/03 07:48:54;;;;;;;;;61.25;51.00;;;;;10.57;68.71;100814.78;5058455;28;45425;-60
2022/03/03 07:51:21;;;;;;;;;58.25;47.00;;;;;10.62;69.28;100819.91;5057076;28;45466;-62
2022/03/03 07:53:48;;;;;;;;;55.00;45.75;;;;;10.60;68.97;100822.56;5058609;28;45400;-61
2022/03/03 07:56:26;;;;;;;;;58.00;48.75;;;;;10.63;69.11;100819.00;5057961;28;45416;-61
2022/03/03 07:59:00;;;;;;;;;58.25;49.25;;;;;10.66;68.61;100818.88;5058040;28;45479;-58
2022/03/03 08:01:26;;;;;;;;;55.25;45.75;;;;;10.65;69.21;100813.69;5058122;28;45439;-60
2022/03/03 08:03:51;;;;;;;;;57.75;47.25;;;;;10.66;68.58;100818.88;5058147;28;45509;-57
2022/03/03 08:06:17;;;;;;;;;57.75;48.25;;;;;10.66;68.54;100813.63;5058165;28;46084;-61
2022/03/03 08:08:44;;;;;;;;;60.75;48.75;;;;;10.70;68.61;100825.78;5057918;28;45495;-60
2022/03/03 08:11:10;;;;;;;;;56.75;47.00;;;;;10.72;68.35;100813.44;5057658;28;45466;-60
2022/03/03 08:13:36;;;;;;;;;59.25;47.00;;;;;10.77;69.18;100819.44;5057982;28;45522;-61
2022/03/03 08:16:03;;;;;;;;;55.75;45.50;;;;;10.78;68.87;100813.25;5057461;28;45388;-60
2022/03/03 08:18:35;;;;;;;;;60.50;48.75;;;;;10.78;69.22;100812.38;5057728;28;45417;-62
2022/03/03 08:21:01;;;;;;;;;58.50;48.25;;;;;10.78;69.53;100812.38;5057969;28;45437;-61
2022/03/03 08:23:27;;;;;;;;;62.25;49.75;;;;;10.81;69.19;100813.13;5056236;28;45658;-59
2022/03/03 08:25:54;;;;;;;;;60.00;47.00;;;;;10.84;68.87;100812.19;5057845;28;46290;-60
2022/03/03 08:28:23;;;;;;;;;64.00;49.00;;;;;10.84;68.96;100812.19;5057685;28;45390;-59
2022/03/03 08:30:52;;;;;;;;;58.00;47.00;;;;;10.91;69.14;100812.81;5057398;28;45468;-59
2022/03/03 08:33:20;;;;;;;;;61.75;50.25;;;;;10.89;69.38;100805.00;5057444;28;45427;-61
2022/03/03 08:35:54;;;;;;;;;56.75;45.50;;;;;10.91;69.13;100804.94;5057584;28;45439;-60
2022/03/03 08:38:31;;;;;;;;;55.25;46.00;;;;;10.95;68.94;100812.69;5057657;28;45417;-61
2022/03/03 08:40:59;;;;;;;;;54.50;44.50;;;;;10.95;69.42;100801.28;5057601;28;45385;-60
2022/03/03 08:43:27;;;;;;;;;55.50;45.75;;;;;10.98;69.71;100801.19;5057407;28;45387;-60
2022/03/03 08:45:56;;;;;;;;;57.50;47.50;;;;;11.00;68.46;100808.13;5057274;28;46458;-60
2022/03/03 08:48:25;;;;;;;;;58.25;47.00;;;;;11.03;69.05;100809.78;5057287;28;45569;-61
2022/03/03 08:50:51;;;;;;;;;61.75;47.50;;;;;11.03;69.13;100818.53;5055238;28;45402;-60
2022/03/03 08:53:17;;;;;;;;;61.00;48.25;;;;;11.06;69.09;100814.94;5057047;28;45618;-59
2022/03/03 08:55:42;;;;;;;;;58.75;47.50;;;;;11.08;68.91;100821.03;5056892;28;45924;-60
2022/03/03 08:58:09;;;;;;;;;59.75;48.25;;;;;11.09;68.96;100813.97;5057305;28;45469;-60
2022/03/03 09:00:35;;;;;;;;;55.50;46.25;;;;;11.08;68.51;100823.66;5057367;28;45474;-61
2022/03/03 09:03:00;;;;;;;;;62.00;49.25;;;;;11.09;68.72;100822.72;5057130;28;45328;-60
2022/03/03 09:05:26;;;;;;;;;65.75;52.00;;;;;11.08;69.07;100825.44;5056970;28;46754;-60
2022/03/03 09:07:52;;;;;;;;;61.75;48.00;;;;;11.06;68.90;100820.22;5057022;28;45486;-60
2022/03/03 09:10:17;;;;;;;;;59.00;46.50;;;;;11.10;68.30;100826.25;5056658;28;45607;-59
2022/03/03 09:12:43;;;;;;;;;59.75;47.50;;;;;11.13;68.59;100828.78;5057124;28;45406;-59
2022/03/03 09:15:10;;;;;;;;;58.75;47.50;;;;;11.16;68.76;100828.66;5056813;28;45444;-60
2022/03/03 09:17:37;;;;;;;;;59.50;48.25;;;;;11.16;68.87;100824.25;5057249;28;45490;-60
2022/03/03 09:20:06;;;;;;;;;64.50;52.00;;;;;11.19;69.57;100826.78;5055955;28;45387;-60
2022/03/03 09:22:31;;;;;;;;;57.25;47.75;;;;;11.19;68.51;100828.56;5056904;28;45442;-60
2022/03/03 09:24:57;;;;;;;;;60.25;49.50;;;;;11.20;68.90;100831.16;5056873;28;45536;-61
2022/03/03 09:27:23;;;;;;;;;57.75;48.50;;;;;11.21;68.80;100830.22;5056819;28;45729;-60
2022/03/03 09:29:48;;;;;;;;;61.00;49.50;;;;;11.24;68.75;100827.47;5056900;28;45404;-59
2022/03/03 09:32:13;;;;;;;;;65.50;49.50;;;;;11.26;68.20;100824.81;5056883;28;45651;-60
2022/03/03 09:34:39;;;;;;;;;61.00;51.00;;;;;11.28;68.68;100825.59;5056517;28;45569;-60
2022/03/03 09:37:05;;;;;;;;;67.00;51.00;;;;;11.32;68.01;100832.50;5056640;28;45489;-60
2022/03/03 09:39:31;;;;;;;;;58.75;47.50;;;;;11.32;68.21;100829.00;5056400;28;45462;-61
2022/03/03 09:41:56;;;;;;;;;59.75;49.25;;;;;11.34;68.73;100832.41;5056453;28;45434;-60
2022/03/03 09:44:23;;;;;;;;;53.75;45.50;;;;;11.37;68.03;100827.06;5056213;28;46283;-61
2022/03/03 09:46:49;;;;;;;;;64.25;51.25;;;;;11.40;67.99;100819.91;5055137;28;45403;-60
2022/03/03 09:49:14;;;;;;;;;60.50;48.75;;;;;11.42;67.52;100817.25;5055064;28;45407;-58
2022/03/03 09:51:40;;;;;;;;;61.00;50.00;;;;;11.51;68.24;100824.81;5056510;28;45584;-59
2022/03/03 09:54:06;;;;;;;;;58.25;48.50;;;;;11.55;67.41;100826.41;5055993;28;45863;-58
2022/03/03 09:56:31;;;;;;;;;59.00;49.50;;;;;11.54;67.73;100811.53;5056157;28;45384;-60
2022/03/03 09:58:57;;;;;;;;;63.00;50.50;;;;;11.63;67.78;100819.09;5056508;28;45434;-60
2022/03/03 10:01:30;;;;;;;;;61.25;50.00;;;;;11.69;67.42;100818.88;5056198;28;45649;-59
2022/03/03 10:04:20;;;;;;;;;60.75;50.25;;;;;11.73;67.43;100820.47;5055173;28;46254;-58
2022/03/03 10:06:46;;;;;;;;;64.25;50.75;;;;;11.76;66.99;100834.44;5055943;28;45517;-59
2022/03/03 10:09:13;;;;;;;;;64.00;51.25;;;;;11.69;67.62;100829.41;5055903;28;45371;-59
2022/03/03 10:11:48;;;;;;;;;58.75;49.50;;;;;11.66;67.37;100832.16;5055561;28;45664;-59
2022/03/03 10:14:35;;;;;;;;;57.75;46.25;;;;;11.57;68.50;100819.31;5055741;28;45485;-59
2022/03/03 10:17:02;;;;;;;;;65.00;52.50;;;;;11.63;68.38;100820.84;5056016;28;45431;-59
2022/03/03 10:19:27;;;;;;;;;65.25;52.00;;;;;11.64;68.74;100823.44;5055761;28;45486;-58
2022/03/03 10:21:53;;;;;;;;;65.75;51.00;;;;;11.65;67.46;100822.53;5055720;28;45568;-59
2022/03/03 10:24:24;;;;;;;;;56.75;47.00;;;;;11.72;66.94;100824.03;5055739;28;45765;-59
2022/03/03 10:27:05;;;;;;;;;64.00;51.00;;;;;11.71;67.82;100818.81;5055713;28;45488;-60
2022/03/03 10:29:31;;;;;;;;;63.50;50.75;;;;;11.78;66.88;100819.44;5055521;28;45452;-60
2022/03/03 10:31:58;;;;;;;;;55.25;46.00;;;;;11.84;67.07;100824.50;5055560;28;45417;-60
2022/03/03 10:34:34;;;;;;;;;59.50;47.25;;;;;11.85;66.37;100821.81;5054621;28;45488;-61
2022/03/03 10:37:05;;;;;;;;;58.00;47.00;;;;;11.80;66.06;100815.00;5055429;28;45383;-63
2022/03/03 10:39:44;;;;;;;;;55.00;45.25;;;;;11.81;66.26;100811.44;5054143;28;45442;-65
2022/03/03 10:42:13;;;;;;;;;56.25;47.25;;;;;11.81;66.65;100821.97;5055399;28;45386;-59
2022/03/03 10:44:38;;;;;;;;;57.50;48.00;;;;;11.80;66.94;100822.91;5054025;28;46006;-59
2022/03/03 10:47:11;;;;;;;;;54.25;46.00;;;;;11.81;66.61;100817.56;5055434;28;45437;-59
2022/03/03 10:49:43;;;;;;;;;58.00;49.25;;;;;11.85;67.21;100819.19;5055696;28;45429;-59
2022/03/03 10:52:17;;;;;;;;;73.00;57.75;;;;;11.90;65.99;100817.25;5055615;28;45426;-59
2022/03/03 10:54:56;;;;;;;;;62.25;51.00;;;;;12.00;65.51;100814.28;5055509;28;45394;-59
2022/03/03 10:57:32;;;;;;;;;63.50;49.25;;;;;12.03;66.30;100814.16;5055438;28;45489;-59
2022/03/03 10:59:59;;;;;;;;;58.25;46.50;;;;;12.04;66.03;100808.84;5055458;28;45371;-60
2022/03/03 11:02:28;;;;;;;;;59.75;47.50;;;;;12.04;65.44;100800.94;5055232;28;45514;-58
2022/03/03 11:04:55;;;;;;;;;56.50;46.75;;;;;12.05;66.04;100800.00;5055321;28;46038;-59
2022/03/03 11:07:22;;;;;;;;;54.00;46.50;;;;;12.06;65.91;100812.28;5055205;28;45450;-57
2022/03/03 11:09:50;;;;;;;;;62.50;50.25;;;;;12.08;64.75;100813.06;5053813;28;45526;-60